Time,TemperatureF,DewpointF,PressureIn,WindDirection,WindDirectionDegrees,WindSpeedMPH,WindSpeedGustMPH,Humidity,HourlyPrecipIn,Conditions,Clouds,dailyrainin,SoftwareType,DateUTC
2013-12-23 02:21:00,4.0,-8.0,28.82,West,277,0.0,0.0,57,0.00,,,0.20,,2013-12-23 08:21:00,
2013-12-23 08:52:00,14.0,8.0,28.96,NW,316,3.0,5.0,76,0.00,,,0.20,,2013-12-23 14:52:00,
2013-12-23 08:53:00,14.0,8.0,28.99,NNE,31,0.0,5.0,75,0.00,,,0.20,,2013-12-23 14:53:00,
2013-12-23 09:01:00,14.0,8.0,28.96,NW,316,3.0,5.0,76,0.00,,,0.20,,2013-12-23 15:01:00,
2013-12-23 09:22:00,14.0,8.0,28.99,NNE,31,0.0,5.0,75,0.00,,,0.20,,2013-12-23 15:22:00,
2013-12-23 09:33:00,14.0,8.0,28.99,NNE,31,0.0,5.0,75,0.00,,,0.20,,2013-12-23 15:33:00,
2013-12-23 10:24:00,16.0,8.0,29.02,NNW,345,3.0,3.0,70,0.00,,,0.20,,2013-12-23 16:24:00,
2013-12-23 10:33:00,16.0,8.0,29.02,NNW,345,3.0,3.0,70,0.00,,,0.20,,2013-12-23 16:33:00,
2013-12-23 10:43:00,16.0,8.0,29.02,NNW,345,3.0,3.0,70,0.00,,,0.20,,2013-12-23 16:43:00,
2013-12-23 10:53:00,17.0,8.0,29.02,NNE,24,2.0,5.0,68,0.00,,,0.20,,2013-12-23 16:53:00,
2013-12-23 11:02:00,17.0,8.0,29.02,NNE,24,2.0,5.0,68,0.00,,,0.20,,2013-12-23 17:02:00,
2013-12-23 11:25:00,17.0,6.0,29.02,North,3,3.0,5.0,62,0.00,,,0.20,,2013-12-23 17:25:00,
2013-12-23 11:42:00,18.0,6.0,29.02,North,353,3.0,5.0,60,0.00,,,0.20,,2013-12-23 17:42:00,
2013-12-23 11:52:00,17.0,4.0,29.02,WNW,302,2.0,5.0,57,0.00,,,0.20,,2013-12-23 17:52:00,
2013-12-23 12:23:00,17.0,4.0,29.02,NW,311,0.0,3.0,57,0.00,,,0.20,,2013-12-23 18:23:00,
2013-12-23 12:32:00,17.0,4.0,29.02,NW,311,0.0,3.0,57,0.00,,,0.20,,2013-12-23 18:32:00,
2013-12-23 12:42:00,17.0,4.0,29.02,NW,311,0.0,3.0,57,0.00,,,0.20,,2013-12-23 18:42:00,
2013-12-23 12:52:00,17.0,4.0,29.02,NW,311,0.0,3.0,57,0.00,,,0.20,,2013-12-23 18:52:00,
2013-12-23 13:01:00,17.0,4.0,29.02,NW,311,0.0,3.0,57,0.00,,,0.20,,2013-12-23 19:01:00,
2013-12-23 13:22:00,18.0,3.0,28.99,WNW,296,3.0,3.0,52,0.00,,,0.20,,2013-12-23 19:22:00,
2013-12-23 13:32:00,18.0,3.0,28.99,WNW,296,3.0,3.0,52,0.00,,,0.20,,2013-12-23 19:32:00,
2013-12-23 13:52:00,19.0,5.0,28.99,West,273,3.0,4.0,54,0.00,,,0.20,,2013-12-23 19:52:00,
2013-12-23 14:02:00,19.0,5.0,28.99,West,273,3.0,4.0,54,0.00,,,0.20,,2013-12-23 20:02:00,
2013-12-23 14:22:00,18.0,4.0,28.99,WNW,294,2.0,3.0,54,0.00,,,0.12,,2013-12-23 20:22:00,
2013-12-23 14:32:00,18.0,4.0,28.99,WNW,294,2.0,3.0,54,0.00,,,0.12,,2013-12-23 20:32:00,
2013-12-23 14:42:00,18.0,4.0,28.99,WNW,294,2.0,3.0,54,0.00,,,0.12,,2013-12-23 20:42:00,
2013-12-23 14:52:00,18.0,4.0,28.99,WNW,294,2.0,3.0,54,0.00,,,0.12,,2013-12-23 20:52:00,
2013-12-23 15:22:00,17.0,2.0,28.99,West,265,0.0,0.0,50,0.00,,,0.04,,2013-12-23 21:22:00,
2013-12-23 15:33:00,17.0,2.0,28.99,West,265,0.0,0.0,50,0.00,,,0.04,,2013-12-23 21:33:00,
2013-12-23 15:53:00,17.0,2.0,28.99,West,265,0.0,3.0,50,0.00,,,0.04,,2013-12-23 21:53:00,
2013-12-23 16:03:00,17.0,2.0,28.99,West,265,0.0,3.0,50,0.00,,,0.04,,2013-12-23 22:03:00,